createdAt,value
2017-09-11T00:00:39.504Z,99404.91
2017-09-11T00:03:05.768Z,99415.20
2017-09-11T00:05:31.974Z,99431.16
2017-09-11T00:07:58.212Z,99418.70
2017-09-11T00:10:24.474Z,99416.24
2017-09-11T00:12:50.665Z,99415.70
2017-09-11T00:15:16.877Z,99416.79
2017-09-11T00:17:43.146Z,99427.23
2017-09-11T00:20:09.368Z,99422.77
2017-09-11T00:22:35.594Z,99421.14
2017-09-11T00:25:01.876Z,99414.66
2017-09-11T00:27:28.098Z,99416.66
2017-09-11T00:29:54.336Z,99421.26
2017-09-11T00:32:20.616Z,99427.34
2017-09-11T00:34:46.839Z,99421.11
2017-09-11T00:37:13.069Z,99424.72
2017-09-11T00:39:39.349Z,99420.26
2017-09-11T00:42:05.552Z,99419.88
2017-09-11T00:44:31.788Z,99428.38
2017-09-11T00:46:58.053Z,99433.79
2017-09-11T00:49:24.265Z,99437.79
2017-09-11T00:51:50.483Z,99441.03
2017-09-11T00:54:16.758Z,99442.59
2017-09-11T00:56:42.981Z,99443.14
2017-09-11T00:59:09.211Z,99437.92
2017-09-11T01:01:35.509Z,99435.19
2017-09-11T01:04:01.749Z,99433.77
2017-09-11T01:06:27.976Z,99427.14
2017-09-11T01:08:54.249Z,99425.11
2017-09-11T01:11:20.480Z,99424.09
2017-09-11T01:13:46.695Z,99422.57
2017-09-11T01:16:12.992Z,99423.07
2017-09-11T01:18:39.223Z,99417.22
2017-09-11T01:21:05.471Z,99423.70
2017-09-11T01:23:31.762Z,99420.06
2017-09-11T01:25:58.002Z,99418.75
2017-09-11T01:28:24.287Z,99416.85
2017-09-11T01:30:50.562Z,99420.19
2017-09-11T01:33:16.788Z,99428.34
2017-09-11T01:35:43.006Z,99425.81
2017-09-11T01:38:09.296Z,99420.27
2017-09-11T01:40:35.506Z,99415.98
2017-09-11T01:43:01.729Z,99415.44
2017-09-11T01:45:28.002Z,99408.81
2017-09-11T01:47:54.232Z,99401.24
2017-09-11T01:50:20.450Z,99405.60
2017-09-11T01:52:46.730Z,99403.34
2017-09-11T01:55:12.941Z,99396.95
2017-09-11T01:57:39.175Z,99408.91
2017-09-11T02:00:05.466Z,99401.17
2017-09-11T02:02:31.700Z,99404.45
2017-09-11T02:04:57.918Z,99409.69
2017-09-11T02:07:24.205Z,99411.68
2017-09-11T02:09:50.435Z,99402.94
2017-09-11T02:12:16.676Z,99400.19
2017-09-11T02:14:42.949Z,99407.75
2017-09-11T02:17:09.169Z,99414.97
2017-09-11T02:19:35.419Z,99410.82
2017-09-11T02:22:01.689Z,99404.86
2017-09-11T02:24:27.910Z,99404.31
2017-09-11T02:26:54.139Z,99406.75
2017-09-11T02:29:20.420Z,99411.27
2017-09-11T02:31:46.648Z,99401.13
2017-09-11T02:34:12.900Z,99409.60
2017-09-11T02:36:39.202Z,99405.42
2017-09-11T02:39:05.435Z,99404.56
2017-09-11T02:41:31.725Z,99410.91
2017-09-11T02:43:58.048Z,99407.67
2017-09-11T02:46:24.296Z,99407.27
2017-09-11T02:48:50.539Z,99415.24
2017-09-11T02:51:16.805Z,99410.60
2017-09-11T02:53:43.018Z,99405.28
2017-09-11T02:56:09.244Z,99412.11
2017-09-11T02:58:35.573Z,99417.21
2017-09-11T03:01:01.793Z,99413.42
2017-09-11T03:03:28.011Z,99414.09
2017-09-11T03:05:54.286Z,99416.38
2017-09-11T03:08:20.514Z,99419.17
2017-09-11T03:10:46.755Z,99421.20
2017-09-11T03:13:13.029Z,99414.70
2017-09-11T03:15:39.257Z,99420.30
2017-09-11T03:18:05.493Z,99423.18
2017-09-11T03:20:31.770Z,99421.70
2017-09-11T03:22:57.980Z,99421.05
2017-09-11T03:25:24.201Z,99419.44
2017-09-11T03:27:50.489Z,99421.11
2017-09-11T03:30:16.719Z,99426.11
2017-09-11T03:32:42.933Z,99434.17
2017-09-11T03:35:09.241Z,99438.22
2017-09-11T03:37:35.485Z,99443.09
2017-09-11T03:40:01.767Z,99443.66
2017-09-11T03:42:28.068Z,99437.77
2017-09-11T03:44:54.286Z,99432.83
2017-09-11T03:47:20.514Z,99431.56
2017-09-11T03:49:46.813Z,99435.70
2017-09-11T03:52:13.029Z,99441.73
2017-09-11T03:54:39.245Z,99437.33
2017-09-11T03:57:05.524Z,99435.71
2017-09-11T03:59:31.748Z,99427.06
2017-09-11T04:01:57.975Z,99426.31
2017-09-11T04:04:24.253Z,99431.44
2017-09-11T04:06:50.457Z,99436.89
2017-09-11T04:09:16.698Z,99431.09
2017-09-11T04:11:42.993Z,99437.02
2017-09-11T04:14:09.218Z,99425.85
2017-09-11T04:16:35.463Z,99426.50
2017-09-11T04:19:01.744Z,99426.56
2017-09-11T04:21:27.971Z,99429.23
2017-09-11T04:23:54.221Z,99432.91
2017-09-11T04:26:20.514Z,99426.64
2017-09-11T04:28:46.765Z,99419.79
2017-09-11T04:31:12.994Z,99411.23
2017-09-11T04:33:39.966Z,99417.84
2017-09-11T04:36:06.226Z,99413.34
2017-09-11T04:38:32.474Z,99413.30
2017-09-11T04:40:58.761Z,99404.05
2017-09-11T04:43:24.998Z,99402.58
2017-09-11T04:45:51.245Z,99405.14
2017-09-11T04:48:17.531Z,99406.87
2017-09-11T04:50:43.767Z,99412.63
2017-09-11T04:53:10.005Z,99411.38
2017-09-11T04:55:36.277Z,99415.22
2017-09-11T04:58:02.497Z,99413.30
2017-09-11T05:00:28.733Z,99408.08
2017-09-11T05:02:55.025Z,99401.38
2017-09-11T05:05:21.246Z,99406.86
2017-09-11T05:07:47.474Z,99397.08
2017-09-11T05:10:13.755Z,99396.12
2017-09-11T05:12:39.983Z,99396.55
2017-09-11T05:15:06.211Z,99392.95
2017-09-11T05:17:32.477Z,99392.64
2017-09-11T05:19:58.709Z,99391.26
2017-09-11T05:22:24.947Z,99385.95
2017-09-11T05:24:51.238Z,99384.70
2017-09-11T05:27:17.481Z,99385.13
2017-09-11T05:29:43.719Z,99382.91
2017-09-11T05:32:10.031Z,99388.20
2017-09-11T05:34:36.277Z,99386.94
2017-09-11T05:37:02.507Z,99384.03
2017-09-11T05:39:28.789Z,99382.84
2017-09-11T05:41:55.038Z,99378.55
2017-09-11T05:44:21.260Z,99381.67
2017-09-11T05:46:47.530Z,99376.64
2017-09-11T05:49:13.964Z,99379.42
2017-09-11T05:51:40.196Z,99376.03
2017-09-11T05:54:06.469Z,99369.98
2017-09-11T05:56:32.690Z,99362.87
2017-09-11T05:58:58.914Z,99358.70
2017-09-11T06:01:25.247Z,99368.21
2017-09-11T06:03:51.482Z,99371.77
2017-09-11T06:06:17.695Z,99369.50
2017-09-11T06:08:43.988Z,99358.75
2017-09-11T06:11:10.211Z,99361.91
2017-09-11T06:13:36.443Z,99360.84
2017-09-11T06:16:02.681Z,99361.16
2017-09-11T06:18:28.898Z,99368.28
2017-09-11T06:20:55.126Z,99367.75
2017-09-11T06:23:21.423Z,99364.08
2017-09-11T06:25:47.665Z,99363.58
2017-09-11T06:28:13.901Z,99362.86
2017-09-11T06:30:40.180Z,99354.30
2017-09-11T06:33:06.402Z,99349.20
2017-09-11T06:35:32.627Z,99351.03
2017-09-11T06:37:58.909Z,99359.43
2017-09-11T06:40:25.137Z,99361.07
2017-09-11T06:42:51.373Z,99363.02
2017-09-11T06:45:17.641Z,99362.47
2017-09-11T06:47:43.851Z,99362.31
2017-09-11T06:50:10.085Z,99363.20
2017-09-11T06:52:36.353Z,99368.61
2017-09-11T06:55:02.587Z,99365.39
2017-09-11T06:57:28.801Z,99367.71
2017-09-11T06:59:55.091Z,99364.05
2017-09-11T07:02:21.317Z,99365.81
2017-09-11T07:04:47.559Z,99367.09
2017-09-11T07:07:13.842Z,99363.23
2017-09-11T07:09:40.075Z,99360.67
2017-09-11T07:12:06.309Z,99359.13
2017-09-11T07:14:32.609Z,99352.28
2017-09-11T07:16:58.875Z,99353.52
2017-09-11T07:19:25.097Z,99352.55
2017-09-11T07:21:51.388Z,99355.34
2017-09-11T07:24:17.598Z,99350.94
2017-09-11T07:26:43.813Z,99338.16
2017-09-11T07:29:10.081Z,99339.27
2017-09-11T07:31:36.321Z,99340.91
2017-09-11T07:34:02.592Z,99336.73
2017-09-11T07:36:28.871Z,99337.59
2017-09-11T07:38:55.094Z,99329.11
2017-09-11T07:41:21.320Z,99331.23
2017-09-11T07:43:47.594Z,99317.25
2017-09-11T07:46:13.819Z,99318.70
2017-09-11T07:48:40.043Z,99309.91
2017-09-11T07:51:06.317Z,99312.84
2017-09-11T07:53:32.547Z,99308.56
2017-09-11T07:55:58.785Z,99309.31
2017-09-11T07:58:25.073Z,99306.73
2017-09-11T08:00:51.315Z,99302.21
2017-09-11T08:03:17.553Z,99300.24
2017-09-11T08:05:43.863Z,99295.88
2017-09-11T08:08:10.113Z,99288.97
2017-09-11T08:10:36.356Z,99284.91
2017-09-11T08:13:02.666Z,99287.91
2017-09-11T08:15:28.900Z,99278.63
2017-09-11T08:17:55.145Z,99269.62
2017-09-11T08:20:21.461Z,99279.25
2017-09-11T08:22:47.686Z,99268.59
2017-09-11T08:25:13.920Z,99268.90
2017-09-11T08:27:40.200Z,99265.10
2017-09-11T08:30:06.438Z,99256.25
2017-09-11T08:32:32.654Z,99254.90
2017-09-11T08:34:58.926Z,99247.31
2017-09-11T08:37:25.172Z,99249.42
2017-09-11T08:39:51.389Z,99242.82
2017-09-11T08:42:17.663Z,99240.47
2017-09-11T08:44:43.890Z,99238.89
2017-09-11T08:47:10.131Z,99237.76
2017-09-11T08:49:36.421Z,99230.55
2017-09-11T08:52:02.645Z,99229.88
2017-09-11T08:54:28.870Z,99216.41
2017-09-11T08:56:55.138Z,99212.78
2017-09-11T08:59:21.383Z,99204.78
2017-09-11T09:01:47.626Z,99202.98
2017-09-11T09:04:13.916Z,99191.15
2017-09-11T09:06:40.149Z,99191.50
2017-09-11T09:09:06.368Z,99190.45
2017-09-11T09:11:32.651Z,99190.15
2017-09-11T09:13:58.865Z,99175.92
2017-09-11T09:16:25.078Z,99170.81
2017-09-11T09:18:51.357Z,99175.12
2017-09-11T09:21:17.590Z,99179.45
2017-09-11T09:23:43.820Z,99172.52
2017-09-11T09:26:10.080Z,99162.64
2017-09-11T09:28:36.318Z,99156.41
2017-09-11T09:31:02.554Z,99154.41
2017-09-11T09:33:28.835Z,99146.97
2017-09-11T09:35:55.057Z,99142.51
2017-09-11T09:38:21.294Z,99142.61
2017-09-11T09:40:47.559Z,99132.77
2017-09-11T09:43:13.765Z,99127.53
2017-09-11T09:45:39.994Z,99117.93
2017-09-11T09:48:06.297Z,99126.17
2017-09-11T09:50:32.522Z,99104.14
2017-09-11T09:52:58.754Z,99111.30
2017-09-11T09:55:25.027Z,99105.12
2017-09-11T09:57:51.248Z,99107.46
2017-09-11T10:00:17.481Z,99101.41
2017-09-11T10:02:43.775Z,99085.30
2017-09-11T10:05:10.059Z,99082.06
2017-09-11T10:07:36.267Z,99065.49
2017-09-11T10:10:02.556Z,99078.66
2017-09-11T10:12:28.775Z,99073.27
2017-09-11T10:14:54.997Z,99072.90
2017-09-11T10:17:21.304Z,99065.80
2017-09-11T10:19:47.554Z,99063.36
2017-09-11T10:22:13.790Z,99063.44
2017-09-11T10:24:40.094Z,99053.65
2017-09-11T10:27:06.317Z,99067.10
2017-09-11T10:29:32.537Z,99063.02
2017-09-11T10:31:58.829Z,99053.94
2017-09-11T10:34:25.048Z,99060.50
2017-09-11T10:36:51.274Z,99061.69
2017-09-11T10:39:17.552Z,99060.02
2017-09-11T10:41:43.789Z,99058.50
2017-09-11T10:44:10.018Z,99048.20
2017-09-11T10:46:36.340Z,99045.45
2017-09-11T10:49:02.554Z,99054.39
2017-09-11T10:51:28.778Z,99043.44
2017-09-11T10:53:55.063Z,99053.83
2017-09-11T10:56:21.309Z,99041.30
2017-09-11T10:58:47.516Z,99040.34
2017-09-11T11:01:13.791Z,99046.87
2017-09-11T11:03:40.007Z,99047.66
2017-09-11T11:06:06.224Z,99033.06
2017-09-11T11:08:32.534Z,99029.49
2017-09-11T11:10:58.763Z,99039.53
2017-09-11T11:13:25.039Z,99039.16
2017-09-11T11:15:51.314Z,99043.23
2017-09-11T11:18:17.535Z,99043.75
2017-09-11T11:20:43.886Z,99040.28
2017-09-11T11:23:10.152Z,99033.28
2017-09-11T11:25:36.384Z,99021.81
2017-09-11T11:28:02.600Z,99032.09
2017-09-11T11:30:28.900Z,99033.52
2017-09-11T11:32:55.129Z,99028.46
2017-09-11T11:35:21.449Z,99028.58
2017-09-11T11:37:47.758Z,99017.67
2017-09-11T11:40:13.979Z,99026.56
2017-09-11T11:42:40.771Z,99015.42
2017-09-11T11:45:07.131Z,99015.79
2017-09-11T11:47:33.345Z,99016.98
2017-09-11T11:49:59.561Z,98989.97
2017-09-11T11:52:25.825Z,98987.16
2017-09-11T11:54:52.038Z,98988.55
2017-09-11T11:57:18.265Z,98999.62
2017-09-11T11:59:44.531Z,98993.89
2017-09-11T12:02:10.763Z,98995.48
2017-09-11T12:04:36.989Z,98974.14
2017-09-11T12:07:03.286Z,98976.00
2017-09-11T12:09:29.504Z,98981.70
2017-09-11T12:11:55.740Z,98971.41
2017-09-11T12:14:22.183Z,98978.78
2017-09-11T12:16:48.394Z,98961.08
2017-09-11T12:19:14.596Z,98962.81
2017-09-11T12:21:40.882Z,98966.10
2017-09-11T12:24:07.097Z,98949.66
2017-09-11T12:26:33.310Z,98958.30
2017-09-11T12:28:59.588Z,98951.20
2017-09-11T12:31:25.800Z,98954.51
2017-09-11T12:33:52.047Z,98948.44
2017-09-11T12:36:18.326Z,98937.89
2017-09-11T12:38:44.547Z,98945.12
2017-09-11T12:41:10.771Z,98932.55
2017-09-11T12:43:37.036Z,98931.80
2017-09-11T12:46:03.249Z,98927.13
2017-09-11T12:48:29.470Z,98918.68
2017-09-11T12:50:55.752Z,98914.73
2017-09-11T12:53:21.970Z,98919.69
2017-09-11T12:55:48.185Z,98919.61
2017-09-11T12:58:14.475Z,98920.56
2017-09-11T13:00:40.698Z,98932.83
2017-09-11T13:03:06.931Z,98921.13
2017-09-11T13:05:33.203Z,98908.09
2017-09-11T13:07:59.662Z,98905.98
2017-09-11T13:10:25.896Z,98897.16
2017-09-11T13:12:52.184Z,98897.86
2017-09-11T13:15:18.412Z,98897.23
2017-09-11T13:17:44.655Z,98903.36
2017-09-11T13:20:10.925Z,98887.33
2017-09-11T13:22:37.155Z,98883.77
2017-09-11T13:25:03.356Z,98886.08
2017-09-11T13:27:29.715Z,98883.99
2017-09-11T13:29:55.930Z,98885.03
2017-09-11T13:32:22.141Z,98869.59
2017-09-11T13:34:48.413Z,98876.59
2017-09-11T13:37:14.631Z,98877.59
2017-09-11T13:39:40.849Z,98869.62
2017-09-11T13:42:07.158Z,98883.75
2017-09-11T13:44:33.380Z,98880.18
2017-09-11T13:46:59.592Z,98871.05
2017-09-11T13:49:25.850Z,98867.27
2017-09-11T13:51:52.080Z,98871.05
2017-09-11T13:54:18.320Z,98866.03
2017-09-11T13:56:44.605Z,98866.66
2017-09-11T13:59:10.813Z,98851.72
2017-09-11T14:01:37.036Z,98849.74
2017-09-11T14:04:03.323Z,98872.61
2017-09-11T14:06:29.559Z,98853.13
2017-09-11T14:08:55.754Z,98863.87
2017-09-11T14:11:22.045Z,98874.39
2017-09-11T14:13:48.260Z,98854.48
2017-09-11T14:16:14.492Z,98850.55
2017-09-11T14:18:40.779Z,98848.75
2017-09-11T14:21:06.985Z,98846.17
2017-09-11T14:23:33.204Z,98851.92
2017-09-11T14:25:59.483Z,98855.83
2017-09-11T14:28:25.698Z,98843.13
2017-09-11T14:30:51.917Z,98850.86
2017-09-11T14:33:18.184Z,98856.02
2017-09-11T14:35:44.389Z,98851.22
2017-09-11T14:38:10.600Z,98849.21
2017-09-11T14:40:36.895Z,98841.25
2017-09-11T14:43:03.110Z,98832.30
2017-09-11T14:45:29.316Z,98829.27
2017-09-11T14:47:55.588Z,98822.86
2017-09-11T14:50:21.811Z,98819.27
2017-09-11T14:52:48.037Z,98825.81
2017-09-11T14:55:14.324Z,98819.07
2017-09-11T14:57:40.542Z,98810.94
2017-09-11T15:00:06.816Z,98813.52
2017-09-11T15:02:33.112Z,98810.77
2017-09-11T15:04:59.320Z,98808.75
2017-09-11T15:07:25.711Z,98802.72
2017-09-11T15:09:52.011Z,98803.50
2017-09-11T15:12:18.228Z,98796.77
2017-09-11T15:14:44.447Z,98794.05
2017-09-11T15:17:10.704Z,98788.90
2017-09-11T15:19:36.917Z,98778.59
2017-09-11T15:22:03.142Z,98781.72
2017-09-11T15:24:29.418Z,98783.47
2017-09-11T15:26:55.643Z,98778.08
2017-09-11T15:29:21.880Z,98780.06
2017-09-11T15:31:48.163Z,98779.11
2017-09-11T15:34:14.376Z,98777.88
2017-09-11T15:36:40.599Z,98761.20
2017-09-11T15:39:06.885Z,98765.59
2017-09-11T15:41:33.126Z,98762.72
2017-09-11T15:43:59.351Z,98755.38
2017-09-11T15:46:25.634Z,98744.44
2017-09-11T15:48:51.862Z,98745.73
2017-09-11T15:51:18.082Z,98742.80
2017-09-11T15:53:44.370Z,98735.59
2017-09-11T15:56:10.607Z,98729.44
2017-09-11T15:58:36.830Z,98722.38
2017-09-11T16:01:03.137Z,98730.16
2017-09-11T16:03:29.376Z,98731.48
2017-09-11T16:05:55.603Z,98725.44
2017-09-11T16:08:21.888Z,98719.77
2017-09-11T16:10:48.108Z,98723.10
2017-09-11T16:13:14.328Z,98721.95
2017-09-11T16:15:40.722Z,98718.27
2017-09-11T16:18:06.935Z,98716.09
2017-09-11T16:20:33.153Z,98705.55
2017-09-11T16:22:59.436Z,98712.59
2017-09-11T16:25:25.654Z,98709.73
2017-09-11T16:27:51.871Z,98707.78
2017-09-11T16:30:18.161Z,98708.11
2017-09-11T16:32:44.392Z,98719.42
2017-09-11T16:35:10.606Z,98719.22
2017-09-11T16:37:36.888Z,98702.28
2017-09-11T16:40:03.244Z,98703.36
2017-09-11T16:42:29.490Z,98701.36
2017-09-11T16:44:55.772Z,98704.22
2017-09-11T16:47:21.982Z,98693.70
2017-09-11T16:49:48.208Z,98692.38
2017-09-11T16:52:14.497Z,98682.39
2017-09-11T16:54:40.728Z,98678.11
2017-09-11T16:57:06.960Z,98679.38
2017-09-11T16:59:33.271Z,98685.89
2017-09-11T17:01:59.490Z,98690.34
2017-09-11T17:04:25.716Z,98685.46
2017-09-11T17:06:51.991Z,98705.06
2017-09-11T17:09:18.204Z,98705.63
2017-09-11T17:11:44.432Z,98710.12
2017-09-11T17:14:10.724Z,98716.23
2017-09-11T17:16:36.943Z,98710.54
2017-09-11T17:19:03.170Z,98710.41
2017-09-11T17:21:29.430Z,98713.08
2017-09-11T17:23:55.645Z,98713.17
2017-09-11T17:26:21.865Z,98716.06
2017-09-11T17:28:48.148Z,98724.48
2017-09-11T17:31:14.370Z,98725.35
2017-09-11T17:33:40.611Z,98729.44
2017-09-11T17:36:06.901Z,98723.95
2017-09-11T17:38:33.129Z,98731.20
2017-09-11T17:40:59.356Z,98735.23
2017-09-11T17:43:25.652Z,98731.34
2017-09-11T17:45:51.879Z,98734.70
2017-09-11T17:48:18.102Z,98733.03
2017-09-11T17:50:44.454Z,98743.50
2017-09-11T17:53:10.688Z,98743.17
2017-09-11T17:55:36.909Z,98734.02
2017-09-11T17:58:03.192Z,98726.25
2017-09-11T18:00:29.442Z,98734.34
2017-09-11T18:02:55.657Z,98731.78
2017-09-11T18:05:21.923Z,98727.96
2017-09-11T18:07:48.131Z,98720.11
2017-09-11T18:10:14.346Z,98717.56
2017-09-11T18:12:40.615Z,98705.24
2017-09-11T18:15:06.839Z,98710.23
2017-09-11T18:17:33.146Z,98702.81
2017-09-11T18:19:59.355Z,98697.44
2017-09-11T18:22:25.556Z,98694.17
2017-09-11T18:24:51.834Z,98685.15
2017-09-11T18:27:18.076Z,98675.72
2017-09-11T18:29:44.265Z,98671.33
2017-09-11T18:32:10.533Z,98669.25
2017-09-11T18:34:36.950Z,98656.00
2017-09-11T18:37:03.137Z,98649.92
2017-09-11T18:39:29.389Z,98630.78
2017-09-11T18:41:55.602Z,98621.34
2017-09-11T18:44:21.807Z,98616.76
2017-09-11T18:46:48.063Z,98610.28
2017-09-11T18:49:14.308Z,98595.70
2017-09-11T18:51:40.501Z,98595.91
2017-09-11T18:54:06.977Z,98594.83
2017-09-11T18:56:33.168Z,98584.30
2017-09-11T18:58:59.369Z,98577.09
2017-09-11T19:01:25.641Z,98576.70
2017-09-11T19:03:51.833Z,98566.19
2017-09-11T19:06:18.029Z,98571.88
2017-09-11T19:08:44.275Z,98581.55
2017-09-11T19:11:10.478Z,98580.72
2017-09-11T19:13:36.803Z,98581.41
2017-09-11T19:16:03.055Z,98575.77
2017-09-11T19:18:29.255Z,98571.89
2017-09-11T19:20:55.461Z,98567.30
2017-09-11T19:23:21.723Z,98575.67
2017-09-11T19:25:47.944Z,98584.77
2017-09-11T19:28:14.164Z,98587.38
2017-09-11T19:30:40.434Z,98592.27
2017-09-11T19:33:06.644Z,98590.98
2017-09-11T19:35:32.843Z,98595.12
2017-09-11T19:37:59.120Z,98611.30
2017-09-11T19:40:25.345Z,98616.80
2017-09-11T19:42:51.573Z,98631.58
2017-09-11T19:45:17.848Z,98643.87
2017-09-11T19:47:44.078Z,98630.07
2017-09-11T19:50:10.289Z,98631.63
2017-09-11T19:52:36.553Z,98636.25
2017-09-11T19:55:02.757Z,98633.69
2017-09-11T19:57:28.978Z,98633.95
2017-09-11T19:59:55.260Z,98652.57
2017-09-11T20:02:21.470Z,98648.44
2017-09-11T20:04:47.673Z,98655.30
2017-09-11T20:07:13.943Z,98630.80
2017-09-11T20:09:40.151Z,98647.30
2017-09-11T20:12:06.362Z,98644.78
2017-09-11T20:14:32.604Z,98641.98
2017-09-11T20:16:58.818Z,98632.61
2017-09-11T20:19:25.025Z,98624.19
2017-09-11T20:21:51.300Z,98629.12
2017-09-11T20:24:17.506Z,98635.89
2017-09-11T20:26:43.727Z,98609.34
2017-09-11T20:29:10.002Z,98600.22
2017-09-11T20:31:36.232Z,98589.05
2017-09-11T20:34:02.563Z,98579.70
2017-09-11T20:36:28.849Z,98587.84
2017-09-11T20:38:55.055Z,98571.00
2017-09-11T20:41:21.387Z,98543.27
2017-09-11T20:43:47.684Z,98559.78
2017-09-11T20:46:13.909Z,98547.88
2017-09-11T20:48:40.134Z,98537.55
2017-09-11T20:51:06.384Z,98540.83
2017-09-11T20:53:32.600Z,98529.49
2017-09-11T20:55:58.827Z,98532.64
2017-09-11T20:58:25.112Z,98530.48
2017-09-11T21:00:51.322Z,98537.35
2017-09-11T21:03:17.660Z,98537.77
2017-09-11T21:05:44.140Z,98535.60
2017-09-11T21:08:10.355Z,98533.37
2017-09-11T21:10:36.569Z,98542.44
2017-09-11T21:13:02.836Z,98542.06
2017-09-11T21:15:29.066Z,98540.88
2017-09-11T21:17:55.289Z,98545.67
2017-09-11T21:20:21.563Z,98555.78
2017-09-11T21:22:47.816Z,98553.22
2017-09-11T21:25:14.038Z,98544.75
2017-09-11T21:27:40.322Z,98551.66
2017-09-11T21:30:06.530Z,98568.17
2017-09-11T21:32:32.728Z,98568.65
2017-09-11T21:34:58.996Z,98565.05
2017-09-11T21:37:25.211Z,98577.07
2017-09-11T21:39:51.427Z,98574.80
2017-09-11T21:42:17.699Z,98582.55
2017-09-11T21:44:43.922Z,98594.54
2017-09-11T21:47:10.143Z,98590.92
2017-09-11T21:49:36.418Z,98586.08
2017-09-11T21:52:02.646Z,98596.33
2017-09-11T21:54:28.859Z,98591.56
2017-09-11T21:56:55.108Z,98579.30
2017-09-11T21:59:21.326Z,98591.06
2017-09-11T22:01:47.547Z,98588.83
2017-09-11T22:04:13.843Z,98582.49
2017-09-11T22:06:40.056Z,98601.42
2017-09-11T22:09:06.286Z,98584.77
2017-09-11T22:11:32.530Z,98596.45
2017-09-11T22:13:58.728Z,98611.11
2017-09-11T22:16:24.954Z,98615.33
2017-09-11T22:18:51.236Z,98611.30
2017-09-11T22:21:17.461Z,98609.97
2017-09-11T22:23:43.671Z,98616.84
2017-09-11T22:26:09.967Z,98623.67
2017-09-11T22:28:36.181Z,98610.05
2017-09-11T22:31:02.390Z,98616.13
2017-09-11T22:33:28.669Z,98620.56
2017-09-11T22:35:54.874Z,98624.41
2017-09-11T22:38:21.091Z,98638.64
2017-09-11T22:40:47.352Z,98613.44
2017-09-11T22:43:13.553Z,98624.84
2017-09-11T22:45:39.762Z,98640.62
2017-09-11T22:48:06.024Z,98609.84
2017-09-11T22:50:32.222Z,98609.52
2017-09-11T22:52:58.442Z,98613.33
2017-09-11T22:55:24.777Z,98600.02
2017-09-11T22:57:50.985Z,98605.26
2017-09-11T23:00:17.274Z,98608.38
2017-09-11T23:02:43.559Z,98599.95
2017-09-11T23:05:09.765Z,98589.63
2017-09-11T23:07:35.973Z,98585.47
2017-09-11T23:10:02.238Z,98587.34
2017-09-11T23:12:28.449Z,98583.61
2017-09-11T23:14:54.661Z,98597.41
2017-09-11T23:17:20.922Z,98587.56
2017-09-11T23:19:47.142Z,98584.73
2017-09-11T23:22:13.372Z,98582.20
2017-09-11T23:24:39.630Z,98585.75
2017-09-11T23:27:05.850Z,98584.63
2017-09-11T23:29:32.065Z,98595.17
2017-09-11T23:31:58.452Z,98582.67
2017-09-11T23:34:24.667Z,98581.92
2017-09-11T23:36:50.878Z,98577.65
2017-09-11T23:39:17.146Z,98585.73
2017-09-11T23:41:43.354Z,98584.59
2017-09-11T23:44:09.571Z,98586.34
2017-09-11T23:46:35.821Z,98581.69
2017-09-11T23:49:02.025Z,98582.63
2017-09-11T23:51:28.237Z,98581.41
2017-09-11T23:53:54.505Z,98575.43
2017-09-11T23:56:20.715Z,98585.20
2017-09-11T23:58:46.936Z,98585.69
